Terminal Aerodrome Forecast
Issued by NWS

Home | Current Version | Previous Version | Text Only | Print | Product List | Glossary On
Versions: 1 2 3 4 5 6 7 8 9 10 11 12 13 14 15
156
FTUS44 KBMX 222145 AAB
TAFTCL
TAF AMD
KTCL 222145Z 2222/2318 11013G19KT 5SM SHRA BKN025 OVC035
      TEMPO 2222/2301 2SM TSRA SCT007CB OVC015
     FM230200 15005KT P6SM BKN015
     FM230600 18005KT P6SM BKN007
     FM231600 23005KT 6SM -DZ OVC015=

USA.gov is the U.S. government's official web portal to all federal, state and local government web resources and services.